sensor_id;sensor_type;location;lat;lon;timestamp;P1;durP1;ratioP1;P2;durP2;ratioP2
80576;SDS011;69937;52.420;10.538;2024-02-15T00:00:03;5.72;;;3.88;;
80576;SDS011;69937;52.420;10.538;2024-02-15T00:05:07;5.65;;;4.00;;
80576;SDS011;69937;52.420;10.538;2024-02-15T00:10:08;4.60;;;3.92;;
80576;SDS011;69937;52.420;10.538;2024-02-15T00:15:08;6.20;;;3.97;;
80576;SDS011;69937;52.420;10.538;2024-02-15T00:20:10;4.47;;;4.07;;
80576;SDS011;69937;52.420;10.538;2024-02-15T00:25:12;4.50;;;3.97;;
80576;SDS011;69937;52.420;10.538;2024-02-15T00:30:13;5.03;;;4.20;;
80576;SDS011;69937;52.420;10.538;2024-02-15T00:35:16;5.25;;;4.55;;
80576;SDS011;69937;52.420;10.538;2024-02-15T00:40:16;5.72;;;4.45;;
80576;SDS011;69937;52.420;10.538;2024-02-15T00:45:17;5.43;;;4.72;;
80576;SDS011;69937;52.420;10.538;2024-02-15T00:50:17;4.72;;;4.28;;
80576;SDS011;69937;52.420;10.538;2024-02-15T00:55:18;6.90;;;6.18;;
80576;SDS011;69937;52.420;10.538;2024-02-15T01:00:19;4.65;;;3.88;;
80576;SDS011;69937;52.420;10.538;2024-02-15T01:05:20;5.47;;;4.88;;
80576;SDS011;69937;52.420;10.538;2024-02-15T01:10:22;5.20;;;4.35;;
80576;SDS011;69937;52.420;10.538;2024-02-15T01:15:24;6.18;;;4.28;;
80576;SDS011;69937;52.420;10.538;2024-02-15T01:20:25;6.32;;;4.70;;
80576;SDS011;69937;52.420;10.538;2024-02-15T01:25:26;4.72;;;4.13;;
80576;SDS011;69937;52.420;10.538;2024-02-15T01:30:27;5.95;;;4.53;;
80576;SDS011;69937;52.420;10.538;2024-02-15T01:35:28;6.70;;;6.00;;
80576;SDS011;69937;52.420;10.538;2024-02-15T01:40:29;5.65;;;4.43;;
80576;SDS011;69937;52.420;10.538;2024-02-15T01:45:29;6.95;;;5.10;;
80576;SDS011;69937;52.420;10.538;2024-02-15T01:50:31;5.35;;;4.43;;
80576;SDS011;69937;52.420;10.538;2024-02-15T01:55:34;8.00;;;4.60;;
80576;SDS011;69937;52.420;10.538;2024-02-15T02:00:35;9.10;;;4.68;;
80576;SDS011;69937;52.420;10.538;2024-02-15T02:05:39;6.90;;;4.53;;
80576;SDS011;69937;52.420;10.538;2024-02-15T02:10:41;6.45;;;3.78;;
80576;SDS011;69937;52.420;10.538;2024-02-15T02:15:42;4.60;;;3.67;;
80576;SDS011;69937;52.420;10.538;2024-02-15T02:20:42;6.72;;;3.58;;
80576;SDS011;69937;52.420;10.538;2024-02-15T02:25:43;6.38;;;4.13;;
80576;SDS011;69937;52.420;10.538;2024-02-15T02:30:44;5.97;;;4.25;;
80576;SDS011;69937;52.420;10.538;2024-02-15T02:35:45;5.38;;;3.92;;
80576;SDS011;69937;52.420;10.538;2024-02-15T02:40:46;7.07;;;6.15;;
80576;SDS011;69937;52.420;10.538;2024-02-15T02:45:46;4.70;;;4.07;;
80576;SDS011;69937;52.420;10.538;2024-02-15T02:50:49;5.85;;;4.35;;
80576;SDS011;69937;52.420;10.538;2024-02-15T02:55:51;5.53;;;4.07;;
80576;SDS011;69937;52.420;10.538;2024-02-15T03:00:52;5.20;;;4.00;;
80576;SDS011;69937;52.420;10.538;2024-02-15T03:05:52;6.50;;;4.13;;
80576;SDS011;69937;52.420;10.538;2024-02-15T03:10:54;5.25;;;3.55;;
80576;SDS011;69937;52.420;10.538;2024-02-15T03:15:54;5.95;;;4.32;;
80576;SDS011;69937;52.420;10.538;2024-02-15T03:20:55;5.43;;;4.03;;
80576;SDS011;69937;52.420;10.538;2024-02-15T03:25:56;4.22;;;3.67;;
80576;SDS011;69937;52.420;10.538;2024-02-15T03:30:57;4.05;;;3.65;;
80576;SDS011;69937;52.420;10.538;2024-02-15T03:36:00;4.97;;;3.97;;
80576;SDS011;69937;52.420;10.538;2024-02-15T03:41:01;5.15;;;3.88;;
80576;SDS011;69937;52.420;10.538;2024-02-15T03:46:02;5.88;;;4.30;;
80576;SDS011;69937;52.420;10.538;2024-02-15T03:51:03;6.70;;;4.05;;
80576;SDS011;69937;52.420;10.538;2024-02-15T03:56:04;5.30;;;3.75;;
80576;SDS011;69937;52.420;10.538;2024-02-15T04:01:04;5.03;;;3.78;;
80576;SDS011;69937;52.420;10.538;2024-02-15T04:06:06;4.97;;;4.03;;
80576;SDS011;69937;52.420;10.538;2024-02-15T04:11:07;4.43;;;3.42;;
80576;SDS011;69937;52.420;10.538;2024-02-15T04:16:08;5.22;;;3.67;;
80576;SDS011;69937;52.420;10.538;2024-02-15T04:21:11;5.35;;;4.85;;
80576;SDS011;69937;52.420;10.538;2024-02-15T04:26:12;4.45;;;3.53;;
80576;SDS011;69937;52.420;10.538;2024-02-15T04:31:13;4.32;;;3.60;;
80576;SDS011;69937;52.420;10.538;2024-02-15T04:36:15;3.85;;;3.35;;
80576;SDS011;69937;52.420;10.538;2024-02-15T04:41:23;5.75;;;3.50;;
80576;SDS011;69937;52.420;10.538;2024-02-15T04:46:23;3.63;;;2.88;;
80576;SDS011;69937;52.420;10.538;2024-02-15T04:51:24;3.83;;;3.40;;
80576;SDS011;69937;52.420;10.538;2024-02-15T04:56:26;6.22;;;3.70;;
80576;SDS011;69937;52.420;10.538;2024-02-15T05:01:27;5.20;;;4.80;;
80576;SDS011;69937;52.420;10.538;2024-02-15T05:06:29;4.03;;;3.63;;
80576;SDS011;69937;52.420;10.538;2024-02-15T05:11:31;4.53;;;3.50;;
80576;SDS011;69937;52.420;10.538;2024-02-15T05:16:32;5.03;;;3.25;;
80576;SDS011;69937;52.420;10.538;2024-02-15T05:21:33;5.10;;;4.60;;
80576;SDS011;69937;52.420;10.538;2024-02-15T05:26:33;5.43;;;3.35;;
80576;SDS011;69937;52.420;10.538;2024-02-15T05:31:34;4.80;;;3.00;;
80576;SDS011;69937;52.420;10.538;2024-02-15T05:36:37;5.15;;;3.70;;
80576;SDS011;69937;52.420;10.538;2024-02-15T05:41:38;4.20;;;3.40;;
80576;SDS011;69937;52.420;10.538;2024-02-15T05:46:40;4.88;;;3.65;;
80576;SDS011;69937;52.420;10.538;2024-02-15T05:51:41;5.03;;;3.65;;
80576;SDS011;69937;52.420;10.538;2024-02-15T05:56:42;5.90;;;4.20;;
80576;SDS011;69937;52.420;10.538;2024-02-15T06:01:42;6.15;;;4.57;;
80576;SDS011;69937;52.420;10.538;2024-02-15T06:06:43;6.40;;;4.10;;
80576;SDS011;69937;52.420;10.538;2024-02-15T06:11:48;5.30;;;3.22;;
80576;SDS011;69937;52.420;10.538;2024-02-15T06:16:50;4.65;;;3.50;;
80576;SDS011;69937;52.420;10.538;2024-02-15T06:21:52;6.03;;;3.72;;
80576;SDS011;69937;52.420;10.538;2024-02-15T06:26:53;4.90;;;4.05;;
80576;SDS011;69937;52.420;10.538;2024-02-15T06:31:59;8.05;;;6.00;;
80576;SDS011;69937;52.420;10.538;2024-02-15T06:37:37;7.93;;;5.07;;
80576;SDS011;69937;52.420;10.538;2024-02-15T06:42:57;12.25;;;7.53;;
80576;SDS011;69937;52.420;10.538;2024-02-15T06:47:57;10.45;;;6.45;;
80576;SDS011;69937;52.420;10.538;2024-02-15T06:52:58;11.90;;;7.40;;
80576;SDS011;69937;52.420;10.538;2024-02-15T06:57:59;10.57;;;7.95;;
80576;SDS011;69937;52.420;10.538;2024-02-15T07:03:00;9.25;;;4.72;;
80576;SDS011;69937;52.420;10.538;2024-02-15T07:08:01;5.10;;;4.03;;
80576;SDS011;69937;52.420;10.538;2024-02-15T07:13:01;7.20;;;5.85;;
80576;SDS011;69937;52.420;10.538;2024-02-15T07:18:04;4.65;;;3.60;;
80576;SDS011;69937;52.420;10.538;2024-02-15T07:23:06;5.30;;;3.53;;
80576;SDS011;69937;52.420;10.538;2024-02-15T07:28:06;4.60;;;4.20;;
80576;SDS011;69937;52.420;10.538;2024-02-15T07:33:08;5.07;;;3.58;;
80576;SDS011;69937;52.420;10.538;2024-02-15T07:38:09;6.07;;;4.93;;
80576;SDS011;69937;52.420;10.538;2024-02-15T07:43:11;4.57;;;4.03;;
80576;SDS011;69937;52.420;10.538;2024-02-15T07:48:12;4.28;;;3.50;;
80576;SDS011;69937;52.420;10.538;2024-02-15T07:53:12;4.78;;;3.53;;
80576;SDS011;69937;52.420;10.538;2024-02-15T07:58:13;4.65;;;4.18;;
80576;SDS011;69937;52.420;10.538;2024-02-15T08:03:14;6.05;;;3.65;;
80576;SDS011;69937;52.420;10.538;2024-02-15T08:08:14;6.68;;;4.38;;
80576;SDS011;69937;52.420;10.538;2024-02-15T08:13:15;5.38;;;4.88;;
80576;SDS011;69937;52.420;10.538;2024-02-15T08:18:17;6.47;;;3.75;;
80576;SDS011;69937;52.420;10.538;2024-02-15T08:23:18;3.95;;;3.20;;
80576;SDS011;69937;52.420;10.538;2024-02-15T08:28:18;5.20;;;3.67;;
80576;SDS011;69937;52.420;10.538;2024-02-15T08:33:20;10.30;;;4.25;;
80576;SDS011;69937;52.420;10.538;2024-02-15T08:38:24;3.65;;;3.20;;
80576;SDS011;69937;52.420;10.538;2024-02-15T08:43:25;4.35;;;2.85;;
80576;SDS011;69937;52.420;10.538;2024-02-15T08:48:25;4.03;;;3.22;;
80576;SDS011;69937;52.420;10.538;2024-02-15T08:53:26;7.18;;;3.28;;
80576;SDS011;69937;52.420;10.538;2024-02-15T08:58:27;9.18;;;3.58;;
80576;SDS011;69937;52.420;10.538;2024-02-15T09:03:27;4.90;;;2.90;;
80576;SDS011;69937;52.420;10.538;2024-02-15T09:08:28;5.40;;;3.03;;
80576;SDS011;69937;52.420;10.538;2024-02-15T09:13:30;5.90;;;3.28;;
80576;SDS011;69937;52.420;10.538;2024-02-15T09:18:32;4.95;;;3.42;;
80576;SDS011;69937;52.420;10.538;2024-02-15T09:23:33;5.90;;;3.22;;
80576;SDS011;69937;52.420;10.538;2024-02-15T09:28:34;7.30;;;4.90;;
80576;SDS011;69937;52.420;10.538;2024-02-15T09:33:34;8.95;;;5.03;;
80576;SDS011;69937;52.420;10.538;2024-02-15T09:38:35;7.95;;;4.35;;
80576;SDS011;69937;52.420;10.538;2024-02-15T09:43:35;8.90;;;3.90;;
80576;SDS011;69937;52.420;10.538;2024-02-15T09:48:36;5.88;;;3.85;;
80576;SDS011;69937;52.420;10.538;2024-02-15T09:53:40;7.60;;;3.60;;
80576;SDS011;69937;52.420;10.538;2024-02-15T09:58:41;7.00;;;4.07;;
80576;SDS011;69937;52.420;10.538;2024-02-15T10:03:43;6.43;;;3.22;;
80576;SDS011;69937;52.420;10.538;2024-02-15T10:08:44;4.15;;;2.53;;
80576;SDS011;69937;52.420;10.538;2024-02-15T10:13:46;4.45;;;2.42;;
80576;SDS011;69937;52.420;10.538;2024-02-15T10:18:47;4.97;;;2.88;;
80576;SDS011;69937;52.420;10.538;2024-02-15T10:23:51;4.28;;;2.80;;
80576;SDS011;69937;52.420;10.538;2024-02-15T10:29:05;6.05;;;2.55;;
80576;SDS011;69937;52.420;10.538;2024-02-15T10:34:13;4.30;;;2.35;;
80576;SDS011;69937;52.420;10.538;2024-02-15T10:39:15;6.68;;;3.15;;
80576;SDS011;69937;52.420;10.538;2024-02-15T10:44:17;4.40;;;2.35;;
80576;SDS011;69937;52.420;10.538;2024-02-15T10:49:20;4.07;;;2.67;;
80576;SDS011;69937;52.420;10.538;2024-02-15T10:54:25;3.72;;;2.25;;
80576;SDS011;69937;52.420;10.538;2024-02-15T10:59:56;4.68;;;2.85;;
80576;SDS011;69937;52.420;10.538;2024-02-15T11:05:02;3.97;;;2.63;;
80576;SDS011;69937;52.420;10.538;2024-02-15T11:10:08;7.47;;;2.25;;
80576;SDS011;69937;52.420;10.538;2024-02-15T11:15:10;4.07;;;2.30;;
80576;SDS011;69937;52.420;10.538;2024-02-15T11:25:35;4.22;;;2.30;;
80576;SDS011;69937;52.420;10.538;2024-02-15T11:30:37;3.92;;;2.17;;
80576;SDS011;69937;52.420;10.538;2024-02-15T11:35:39;4.68;;;2.17;;
80576;SDS011;69937;52.420;10.538;2024-02-15T11:41:04;5.57;;;2.35;;
80576;SDS011;69937;52.420;10.538;2024-02-15T11:46:06;11.05;;;4.78;;
80576;SDS011;69937;52.420;10.538;2024-02-15T11:51:08;3.42;;;2.42;;
80576;SDS011;69937;52.420;10.538;2024-02-15T11:56:11;7.68;;;3.33;;
80576;SDS011;69937;52.420;10.538;2024-02-15T12:01:15;4.32;;;2.67;;
80576;SDS011;69937;52.420;10.538;2024-02-15T12:06:34;8.02;;;3.92;;
80576;SDS011;69937;52.420;10.538;2024-02-15T12:11:59;5.53;;;2.95;;
80576;SDS011;69937;52.420;10.538;2024-02-15T12:17:18;8.00;;;2.42;;
80576;SDS011;69937;52.420;10.538;2024-02-15T12:22:42;5.75;;;3.15;;
80576;SDS011;69937;52.420;10.538;2024-02-15T12:27:44;4.75;;;2.70;;
80576;SDS011;69937;52.420;10.538;2024-02-15T12:32:46;5.65;;;2.20;;
80576;SDS011;69937;52.420;10.538;2024-02-15T12:38:01;3.75;;;2.47;;
80576;SDS011;69937;52.420;10.538;2024-02-15T12:43:05;3.30;;;2.50;;
80576;SDS011;69937;52.420;10.538;2024-02-15T12:48:06;2.72;;;2.28;;
80576;SDS011;69937;52.420;10.538;2024-02-15T12:53:07;4.95;;;2.42;;
80576;SDS011;69937;52.420;10.538;2024-02-15T12:58:14;3.80;;;2.75;;
80576;SDS011;69937;52.420;10.538;2024-02-15T13:03:16;3.00;;;2.47;;
80576;SDS011;69937;52.420;10.538;2024-02-15T13:08:17;4.28;;;2.58;;
80576;SDS011;69937;52.420;10.538;2024-02-15T13:13:19;6.35;;;3.28;;
80576;SDS011;69937;52.420;10.538;2024-02-15T13:18:21;4.60;;;2.42;;
80576;SDS011;69937;52.420;10.538;2024-02-15T13:23:21;9.48;;;3.42;;
80576;SDS011;69937;52.420;10.538;2024-02-15T13:28:22;4.13;;;3.70;;
80576;SDS011;69937;52.420;10.538;2024-02-15T13:33:24;5.25;;;2.85;;
80576;SDS011;69937;52.420;10.538;2024-02-15T13:38:26;5.43;;;3.90;;
80576;SDS011;69937;52.420;10.538;2024-02-15T13:43:28;9.93;;;3.75;;
80576;SDS011;69937;52.420;10.538;2024-02-15T13:48:29;11.52;;;4.55;;
80576;SDS011;69937;52.420;10.538;2024-02-15T13:53:30;12.30;;;5.35;;
80576;SDS011;69937;52.420;10.538;2024-02-15T13:58:31;6.07;;;3.13;;
80576;SDS011;69937;52.420;10.538;2024-02-15T14:03:31;5.78;;;3.00;;
80576;SDS011;69937;52.420;10.538;2024-02-15T14:08:33;9.20;;;3.70;;
80576;SDS011;69937;52.420;10.538;2024-02-15T14:13:34;7.38;;;3.40;;
80576;SDS011;69937;52.420;10.538;2024-02-15T14:18:35;4.05;;;3.25;;
80576;SDS011;69937;52.420;10.538;2024-02-15T14:23:36;5.63;;;3.35;;
80576;SDS011;69937;52.420;10.538;2024-02-15T14:28:36;7.28;;;3.08;;
80576;SDS011;69937;52.420;10.538;2024-02-15T14:33:41;3.42;;;2.10;;
80576;SDS011;69937;52.420;10.538;2024-02-15T14:38:41;5.13;;;2.67;;
80576;SDS011;69937;52.420;10.538;2024-02-15T14:43:42;4.55;;;2.58;;
80576;SDS011;69937;52.420;10.538;2024-02-15T14:48:43;5.10;;;2.42;;
80576;SDS011;69937;52.420;10.538;2024-02-15T14:53:46;6.78;;;2.08;;
80576;SDS011;69937;52.420;10.538;2024-02-15T14:58:47;5.55;;;2.42;;
80576;SDS011;69937;52.420;10.538;2024-02-15T15:03:54;4.32;;;2.35;;
80576;SDS011;69937;52.420;10.538;2024-02-15T15:08:55;5.88;;;2.45;;
80576;SDS011;69937;52.420;10.538;2024-02-15T15:14:14;5.78;;;2.13;;
80576;SDS011;69937;52.420;10.538;2024-02-15T15:19:15;4.20;;;3.00;;
80576;SDS011;69937;52.420;10.538;2024-02-15T15:24:16;7.72;;;4.68;;
80576;SDS011;69937;52.420;10.538;2024-02-15T15:29:17;5.85;;;3.28;;
80576;SDS011;69937;52.420;10.538;2024-02-15T15:34:17;5.85;;;3.22;;
80576;SDS011;69937;52.420;10.538;2024-02-15T15:39:19;3.83;;;2.60;;
80576;SDS011;69937;52.420;10.538;2024-02-15T15:44:20;3.53;;;1.90;;
80576;SDS011;69937;52.420;10.538;2024-02-15T15:49:22;4.22;;;3.55;;
80576;SDS011;69937;52.420;10.538;2024-02-15T15:54:24;2.90;;;2.42;;
80576;SDS011;69937;52.420;10.538;2024-02-15T15:59:25;7.05;;;3.20;;
80576;SDS011;69937;52.420;10.538;2024-02-15T16:04:25;5.60;;;3.22;;
80576;SDS011;69937;52.420;10.538;2024-02-15T16:09:26;3.70;;;2.90;;
80576;SDS011;69937;52.420;10.538;2024-02-15T16:14:26;3.17;;;2.42;;
80576;SDS011;69937;52.420;10.538;2024-02-15T16:19:27;4.82;;;2.67;;
80576;SDS011;69937;52.420;10.538;2024-02-15T16:24:28;8.32;;;3.88;;
80576;SDS011;69937;52.420;10.538;2024-02-15T16:29:29;4.50;;;2.63;;
80576;SDS011;69937;52.420;10.538;2024-02-15T16:34:30;11.85;;;5.50;;
80576;SDS011;69937;52.420;10.538;2024-02-15T16:39:30;6.50;;;3.00;;
80576;SDS011;69937;52.420;10.538;2024-02-15T16:44:31;8.32;;;4.18;;
80576;SDS011;69937;52.420;10.538;2024-02-15T16:49:31;3.47;;;2.47;;
80576;SDS011;69937;52.420;10.538;2024-02-15T16:54:32;6.55;;;2.63;;
80576;SDS011;69937;52.420;10.538;2024-02-15T16:59:32;4.05;;;2.65;;
80576;SDS011;69937;52.420;10.538;2024-02-15T17:04:34;7.63;;;3.63;;
80576;SDS011;69937;52.420;10.538;2024-02-15T17:09:34;3.65;;;2.22;;
80576;SDS011;69937;52.420;10.538;2024-02-15T17:14:35;3.55;;;2.72;;
80576;SDS011;69937;52.420;10.538;2024-02-15T17:19:38;7.32;;;3.92;;
80576;SDS011;69937;52.420;10.538;2024-02-15T17:24:40;4.85;;;2.72;;
80576;SDS011;69937;52.420;10.538;2024-02-15T17:29:41;2.97;;;2.30;;
80576;SDS011;69937;52.420;10.538;2024-02-15T17:34:42;2.17;;;1.83;;
80576;SDS011;69937;52.420;10.538;2024-02-15T17:39:43;2.20;;;2.00;;
80576;SDS011;69937;52.420;10.538;2024-02-15T17:44:44;5.68;;;2.55;;
80576;SDS011;69937;52.420;10.538;2024-02-15T17:49:45;4.63;;;2.28;;
80576;SDS011;69937;52.420;10.538;2024-02-15T17:54:46;3.33;;;2.40;;
80576;SDS011;69937;52.420;10.538;2024-02-15T17:59:46;2.35;;;1.88;;
80576;SDS011;69937;52.420;10.538;2024-02-15T18:04:47;7.43;;;2.50;;
80576;SDS011;69937;52.420;10.538;2024-02-15T18:09:49;3.85;;;2.67;;
80576;SDS011;69937;52.420;10.538;2024-02-15T18:14:51;4.72;;;3.20;;
80576;SDS011;69937;52.420;10.538;2024-02-15T18:19:52;5.45;;;2.97;;
80576;SDS011;69937;52.420;10.538;2024-02-15T18:24:56;5.43;;;3.00;;
80576;SDS011;69937;52.420;10.538;2024-02-15T18:29:56;5.78;;;2.67;;
80576;SDS011;69937;52.420;10.538;2024-02-15T18:34:57;6.47;;;3.92;;
80576;SDS011;69937;52.420;10.538;2024-02-15T18:39:58;8.13;;;3.53;;
80576;SDS011;69937;52.420;10.538;2024-02-15T18:45:04;5.75;;;2.67;;
80576;SDS011;69937;52.420;10.538;2024-02-15T18:50:06;6.57;;;3.25;;
80576;SDS011;69937;52.420;10.538;2024-02-15T18:55:08;11.27;;;4.03;;
80576;SDS011;69937;52.420;10.538;2024-02-15T19:00:12;6.32;;;3.33;;
80576;SDS011;69937;52.420;10.538;2024-02-15T19:05:13;8.18;;;3.15;;
80576;SDS011;69937;52.420;10.538;2024-02-15T19:10:21;3.83;;;2.47;;
80576;SDS011;69937;52.420;10.538;2024-02-15T19:15:21;3.72;;;2.28;;
80576;SDS011;69937;52.420;10.538;2024-02-15T19:20:26;3.67;;;2.47;;
80576;SDS011;69937;52.420;10.538;2024-02-15T19:25:26;6.75;;;2.63;;
80576;SDS011;69937;52.420;10.538;2024-02-15T19:30:27;3.50;;;2.60;;
80576;SDS011;69937;52.420;10.538;2024-02-15T19:35:27;5.72;;;3.13;;
80576;SDS011;69937;52.420;10.538;2024-02-15T19:40:31;4.93;;;2.45;;
80576;SDS011;69937;52.420;10.538;2024-02-15T19:45:31;4.78;;;2.15;;
80576;SDS011;69937;52.420;10.538;2024-02-15T19:50:37;3.83;;;2.03;;
80576;SDS011;69937;52.420;10.538;2024-02-15T19:55:38;3.90;;;2.78;;
80576;SDS011;69937;52.420;10.538;2024-02-15T20:00:39;4.30;;;3.03;;
80576;SDS011;69937;52.420;10.538;2024-02-15T20:05:40;3.25;;;2.55;;
80576;SDS011;69937;52.420;10.538;2024-02-15T20:10:40;5.13;;;2.75;;
80576;SDS011;69937;52.420;10.538;2024-02-15T20:15:41;5.15;;;2.60;;
80576;SDS011;69937;52.420;10.538;2024-02-15T20:20:41;5.30;;;2.50;;
80576;SDS011;69937;52.420;10.538;2024-02-15T20:25:42;4.30;;;2.20;;
80576;SDS011;69937;52.420;10.538;2024-02-15T20:30:44;4.43;;;2.45;;
80576;SDS011;69937;52.420;10.538;2024-02-15T20:35:45;3.72;;;3.08;;
80576;SDS011;69937;52.420;10.538;2024-02-15T20:40:45;5.22;;;2.78;;
80576;SDS011;69937;52.420;10.538;2024-02-15T20:45:46;4.05;;;2.65;;
80576;SDS011;69937;52.420;10.538;2024-02-15T20:50:46;6.22;;;3.13;;
80576;SDS011;69937;52.420;10.538;2024-02-15T20:55:47;3.60;;;2.33;;
80576;SDS011;69937;52.420;10.538;2024-02-15T21:00:48;3.63;;;2.40;;
80576;SDS011;69937;52.420;10.538;2024-02-15T21:05:48;5.30;;;2.40;;
80576;SDS011;69937;52.420;10.538;2024-02-15T21:10:49;3.00;;;2.40;;
80576;SDS011;69937;52.420;10.538;2024-02-15T21:15:49;6.55;;;2.47;;
80576;SDS011;69937;52.420;10.538;2024-02-15T21:20:50;6.28;;;2.35;;
80576;SDS011;69937;52.420;10.538;2024-02-15T21:25:50;4.85;;;2.67;;
80576;SDS011;69937;52.420;10.538;2024-02-15T21:30:52;4.38;;;2.40;;
80576;SDS011;69937;52.420;10.538;2024-02-15T21:35:52;5.95;;;4.32;;
80576;SDS011;69937;52.420;10.538;2024-02-15T21:40:53;4.95;;;3.15;;
80576;SDS011;69937;52.420;10.538;2024-02-15T21:45:53;5.05;;;3.10;;
80576;SDS011;69937;52.420;10.538;2024-02-15T21:50:54;6.00;;;3.20;;
80576;SDS011;69937;52.420;10.538;2024-02-15T21:55:54;4.65;;;3.03;;
80576;SDS011;69937;52.420;10.538;2024-02-15T22:00:55;4.13;;;3.17;;
80576;SDS011;69937;52.420;10.538;2024-02-15T22:05:56;3.80;;;2.78;;
80576;SDS011;69937;52.420;10.538;2024-02-15T22:10:56;4.88;;;2.67;;
80576;SDS011;69937;52.420;10.538;2024-02-15T22:15:58;4.53;;;3.08;;
80576;SDS011;69937;52.420;10.538;2024-02-15T22:20:58;6.22;;;3.35;;
80576;SDS011;69937;52.420;10.538;2024-02-15T22:25:59;7.63;;;3.53;;
80576;SDS011;69937;52.420;10.538;2024-02-15T22:31:00;4.88;;;2.83;;
80576;SDS011;69937;52.420;10.538;2024-02-15T22:36:00;4.75;;;3.08;;
80576;SDS011;69937;52.420;10.538;2024-02-15T22:41:01;4.88;;;2.70;;
80576;SDS011;69937;52.420;10.538;2024-02-15T22:46:01;4.40;;;2.72;;
80576;SDS011;69937;52.420;10.538;2024-02-15T22:51:02;5.65;;;3.97;;
80576;SDS011;69937;52.420;10.538;2024-02-15T22:56:04;3.03;;;2.45;;
80576;SDS011;69937;52.420;10.538;2024-02-15T23:01:09;4.40;;;3.05;;
80576;SDS011;69937;52.420;10.538;2024-02-15T23:06:10;6.97;;;3.05;;
80576;SDS011;69937;52.420;10.538;2024-02-15T23:11:11;10.77;;;3.47;;
80576;SDS011;69937;52.420;10.538;2024-02-15T23:16:13;5.80;;;3.30;;
80576;SDS011;69937;52.420;10.538;2024-02-15T23:21:14;6.00;;;3.33;;
80576;SDS011;69937;52.420;10.538;2024-02-15T23:26:16;4.95;;;3.28;;
80576;SDS011;69937;52.420;10.538;2024-02-15T23:31:16;6.30;;;3.72;;
80576;SDS011;69937;52.420;10.538;2024-02-15T23:36:18;4.22;;;3.22;;
80576;SDS011;69937;52.420;10.538;2024-02-15T23:41:37;4.25;;;3.50;;
80576;SDS011;69937;52.420;10.538;2024-02-15T23:46:37;5.93;;;3.45;;
80576;SDS011;69937;52.420;10.538;2024-02-15T23:51:38;4.07;;;3.08;;
80576;SDS011;69937;52.420;10.538;2024-02-15T23:56:38;5.10;;;3.95;;
